createdAt,value
2017-08-04T00:02:12.266Z,30.00
2017-08-04T00:04:39.800Z,23.10
2017-08-04T00:07:07.307Z,21.83
2017-08-04T00:09:34.817Z,25.63
2017-08-04T00:12:02.341Z,20.60
2017-08-04T00:14:29.851Z,26.20
2017-08-04T00:16:58.143Z,22.97
2017-08-04T00:19:25.654Z,21.17
2017-08-04T00:21:53.174Z,23.47
2017-08-04T00:24:20.684Z,25.03
2017-08-04T00:26:48.207Z,20.73
2017-08-04T00:29:15.721Z,19.37
2017-08-04T00:31:44.012Z,29.30
2017-08-04T00:34:11.525Z,18.53
2017-08-04T00:36:39.027Z,26.10
2017-08-04T00:39:07.318Z,26.17
2017-08-04T00:41:34.818Z,21.37
2017-08-04T00:44:02.335Z,20.10
2017-08-04T00:46:29.843Z,22.50
2017-08-04T00:48:57.355Z,21.77
2017-08-04T00:51:24.863Z,27.10
2017-08-04T00:53:52.392Z,25.23
2017-08-04T00:56:19.903Z,20.67
2017-08-04T00:58:48.194Z,28.40
2017-08-04T01:01:15.703Z,26.73
2017-08-04T01:03:43.203Z,22.27
2017-08-04T01:06:10.735Z,22.30
2017-08-04T01:08:38.238Z,25.17
2017-08-04T01:11:05.766Z,23.23
2017-08-04T01:13:34.035Z,24.57
2017-08-04T01:16:01.554Z,24.50
2017-08-04T01:18:29.054Z,30.17
2017-08-04T01:20:56.580Z,23.93
2017-08-04T01:23:24.082Z,30.23
2017-08-04T01:25:52.387Z,24.67
2017-08-04T01:28:19.886Z,26.17
2017-08-04T01:30:47.398Z,23.10
2017-08-04T01:33:14.922Z,24.23
2017-08-04T01:35:42.419Z,30.23
2017-08-04T01:38:09.948Z,19.70
2017-08-04T01:40:38.229Z,28.10
2017-08-04T01:43:06.519Z,29.23
2017-08-04T01:45:34.027Z,22.60
2017-08-04T01:48:01.560Z,28.47
2017-08-04T01:50:29.084Z,22.30
2017-08-04T01:52:56.606Z,32.67
2017-08-04T01:55:24.106Z,26.77
2017-08-04T01:57:51.621Z,25.90
2017-08-04T02:00:19.143Z,22.67
2017-08-04T02:02:46.650Z,28.00
2017-08-04T02:05:14.171Z,24.90
2017-08-04T02:07:41.682Z,31.77
2017-08-04T02:10:09.975Z,35.17
2017-08-04T02:12:37.478Z,22.10
2017-08-04T02:15:05.004Z,27.70
2017-08-04T02:17:32.511Z,27.93
2017-08-04T02:20:00.039Z,27.40
2017-08-04T02:22:27.543Z,27.33
2017-08-04T02:24:55.831Z,34.57
2017-08-04T02:27:23.336Z,23.70
2017-08-04T02:29:50.858Z,27.67
2017-08-04T02:32:18.365Z,26.47
2017-08-04T02:34:45.895Z,25.50
2017-08-04T02:37:13.403Z,35.03
2017-08-04T02:39:40.949Z,36.13
2017-08-04T02:42:08.467Z,24.67
2017-08-04T02:44:35.979Z,34.53
2017-08-04T02:47:04.279Z,31.00
2017-08-04T02:49:31.782Z,37.83
2017-08-04T02:51:59.298Z,30.47
2017-08-04T02:54:26.815Z,25.90
2017-08-04T02:56:54.336Z,26.60
2017-08-04T02:59:21.843Z,28.43
2017-08-04T03:01:49.371Z,27.30
2017-08-04T03:04:16.874Z,28.53
2017-08-04T03:06:45.159Z,26.53
2017-08-04T03:09:13.432Z,34.80
2017-08-04T03:11:40.959Z,26.90
2017-08-04T03:14:08.462Z,29.77
2017-08-04T03:16:35.991Z,26.13
2017-08-04T03:19:03.496Z,23.50
2017-08-04T03:21:31.022Z,21.30
2017-08-04T03:23:59.290Z,23.23
2017-08-04T03:26:26.819Z,23.10
2017-08-04T03:28:54.326Z,31.83
2017-08-04T03:31:21.852Z,26.13
2017-08-04T03:33:49.363Z,25.33
2017-08-04T03:36:16.894Z,26.17
2017-08-04T03:38:45.167Z,21.80
2017-08-04T03:41:13.438Z,24.80
2017-08-04T03:43:40.954Z,26.33
2017-08-04T03:46:08.460Z,25.73
2017-08-04T03:48:35.983Z,27.73
2017-08-04T03:51:03.483Z,22.90
2017-08-04T03:53:31.012Z,26.63
2017-08-04T03:55:58.519Z,28.20
2017-08-04T03:58:26.048Z,21.90
2017-08-04T04:00:54.320Z,18.00
2017-08-04T04:03:21.844Z,22.97
2017-08-04T04:05:49.347Z,25.27
2017-08-04T04:08:16.876Z,29.70
2017-08-04T04:10:44.379Z,30.03
2017-08-04T04:13:11.917Z,28.00
2017-08-04T04:15:40.191Z,21.70
2017-08-04T04:18:08.487Z,33.00
2017-08-04T04:20:35.996Z,29.47
2017-08-04T04:23:03.516Z,28.57
2017-08-04T04:25:31.027Z,25.43
2017-08-04T04:27:58.546Z,26.27
2017-08-04T04:30:26.055Z,21.17
2017-08-04T04:32:54.359Z,25.27
2017-08-04T04:35:21.880Z,27.67
2017-08-04T04:37:55.319Z,27.20
2017-08-04T04:40:22.822Z,28.50
2017-08-04T04:42:50.326Z,25.93
2017-08-04T04:45:17.853Z,32.13
2017-08-04T04:47:45.370Z,23.57
2017-08-04T04:50:12.895Z,28.57
2017-08-04T04:52:40.411Z,28.70
2017-08-04T04:55:07.947Z,29.00
2017-08-04T04:57:35.459Z,27.40
2017-08-04T05:00:03.002Z,29.60
2017-08-04T05:02:30.515Z,29.20
2017-08-04T05:04:58.052Z,32.00
2017-08-04T05:07:25.567Z,36.00
2017-08-04T05:09:53.090Z,30.17
2017-08-04T05:12:20.615Z,33.80
2017-08-04T05:14:48.151Z,31.83
2017-08-04T05:17:15.659Z,31.73
2017-08-04T05:19:43.186Z,33.00
2017-08-04T05:22:11.464Z,32.80
2017-08-04T05:24:38.987Z,40.37
2017-08-04T05:27:06.490Z,34.73
2017-08-04T05:29:34.842Z,34.60
2017-08-04T05:32:02.343Z,41.27
2017-08-04T05:34:29.863Z,39.90
2017-08-04T05:36:57.383Z,35.63
2017-08-04T05:39:24.891Z,34.30
2017-08-04T05:41:53.178Z,40.37
2017-08-04T05:44:20.679Z,33.00
2017-08-04T05:46:48.209Z,38.83
2017-08-04T05:49:15.710Z,35.87
2017-08-04T05:51:43.235Z,31.20
2017-08-04T05:54:10.739Z,43.20
2017-08-04T05:56:38.263Z,42.00
2017-08-04T05:59:05.772Z,43.40
2017-08-04T06:01:34.055Z,42.77
2017-08-04T06:04:02.327Z,36.50
2017-08-04T06:06:30.610Z,47.77
2017-08-04T06:08:58.120Z,43.80
2017-08-04T06:11:25.643Z,41.83
2017-08-04T06:13:53.156Z,50.93
2017-08-04T06:16:20.684Z,44.03
2017-08-04T06:18:48.201Z,43.77
2017-08-04T06:21:15.722Z,45.23
2017-08-04T06:23:43.231Z,43.20
2017-08-04T06:26:10.767Z,41.97
2017-08-04T06:28:39.039Z,41.87
2017-08-04T06:31:07.306Z,50.43
2017-08-04T06:33:34.827Z,47.10
2017-08-04T06:36:02.322Z,48.67
2017-08-04T06:38:29.851Z,43.23
2017-08-04T06:40:57.355Z,45.40
2017-08-04T06:43:25.647Z,42.37
2017-08-04T06:45:53.167Z,49.33
2017-08-04T06:48:32.711Z,41.27
2017-08-04T06:51:12.035Z,37.80
2017-08-04T06:53:51.506Z,38.57
2017-08-04T06:56:19.012Z,38.07
2017-08-04T06:58:46.527Z,34.90
2017-08-04T07:01:14.035Z,39.70
2017-08-04T07:03:41.550Z,40.93
2017-08-04T07:06:09.064Z,43.43
2017-08-04T07:08:36.586Z,39.70
2017-08-04T07:11:04.089Z,37.30
2017-08-04T07:13:31.614Z,31.83
2017-08-04T07:15:59.125Z,29.47
2017-08-04T07:18:26.646Z,33.53
2017-08-04T07:20:54.154Z,34.10
2017-08-04T07:23:21.671Z,37.40
2017-08-04T07:25:49.191Z,31.43
2017-08-04T07:28:16.696Z,29.13
2017-08-04T07:30:44.219Z,34.73
2017-08-04T07:33:11.718Z,29.33
2017-08-04T07:35:39.234Z,33.73
2017-08-04T07:38:06.740Z,32.80
2017-08-04T07:40:35.031Z,32.30
2017-08-04T07:43:03.291Z,28.90
2017-08-04T07:45:31.578Z,27.90
2017-08-04T07:47:59.843Z,28.23
2017-08-04T07:50:27.363Z,32.57
2017-08-04T07:52:54.867Z,29.87
2017-08-04T07:55:23.159Z,30.00
2017-08-04T07:57:50.663Z,28.20
2017-08-04T08:00:18.185Z,30.87
2017-08-04T08:02:45.695Z,31.70
2017-08-04T08:05:13.223Z,30.47
2017-08-04T08:07:40.731Z,34.13
2017-08-04T08:10:09.027Z,24.30
2017-08-04T08:12:36.531Z,32.50
2017-08-04T08:15:04.060Z,28.10
2017-08-04T08:17:31.567Z,32.93
2017-08-04T08:19:59.090Z,27.47
2017-08-04T08:22:26.603Z,25.20
2017-08-04T08:24:54.871Z,27.23
2017-08-04T08:27:23.162Z,21.30
2017-08-04T08:29:51.422Z,23.60
2017-08-04T08:32:18.949Z,23.47
2017-08-04T08:34:46.445Z,12.37
2017-08-04T08:37:14.730Z,19.47
2017-08-04T08:39:42.998Z,21.93
2017-08-04T08:42:11.287Z,18.63
2017-08-04T08:44:38.795Z,15.80
2017-08-04T08:47:06.310Z,16.20
2017-08-04T08:49:33.816Z,14.73
2017-08-04T08:52:01.343Z,18.53
2017-08-04T08:54:28.904Z,18.53
2017-08-04T08:56:56.460Z,14.97
2017-08-04T08:59:23.958Z,14.90
2017-08-04T09:01:51.492Z,20.20
2017-08-04T09:04:18.999Z,16.93
2017-08-04T09:06:47.290Z,15.77
2017-08-04T09:09:14.790Z,19.63
2017-08-04T09:11:42.302Z,15.20
2017-08-04T09:14:10.561Z,15.13
2017-08-04T09:16:38.851Z,22.30
2017-08-04T09:19:07.117Z,17.30
2017-08-04T09:21:35.503Z,22.40
2017-08-04T09:24:03.006Z,18.03
2017-08-04T09:26:30.500Z,11.53
2017-08-04T09:28:58.014Z,14.63
2017-08-04T09:31:25.505Z,19.67
2017-08-04T09:33:53.026Z,18.83
2017-08-04T09:36:20.535Z,19.47
2017-08-04T09:38:48.054Z,18.67
2017-08-04T09:41:15.563Z,21.60
2017-08-04T09:43:43.091Z,19.93
2017-08-04T09:46:10.591Z,18.63
2017-08-04T09:48:38.485Z,17.20
2017-08-04T09:51:05.986Z,27.00
2017-08-04T09:53:33.511Z,20.83
2017-08-04T09:56:01.005Z,15.53
2017-08-04T09:58:28.530Z,18.10
2017-08-04T10:00:56.033Z,51.87
2017-08-04T10:03:24.318Z,18.10
2017-08-04T10:05:52.582Z,19.23
2017-08-04T10:08:20.099Z,16.43
2017-08-04T10:10:47.597Z,18.17
2017-08-04T10:13:15.111Z,17.00
2017-08-04T10:15:42.611Z,14.50
2017-08-04T10:18:10.160Z,15.67
2017-08-04T10:20:37.663Z,13.97
2017-08-04T10:23:05.162Z,21.73
2017-08-04T10:25:32.679Z,14.53
2017-08-04T10:28:00.183Z,14.33
2017-08-04T10:30:27.699Z,18.13
2017-08-04T10:32:55.206Z,18.57
2017-08-04T10:35:22.718Z,21.53
2017-08-04T10:37:50.227Z,20.93
2017-08-04T10:40:17.739Z,15.20
2017-08-04T10:42:45.241Z,14.60
2017-08-04T10:45:12.755Z,16.97
2017-08-04T10:47:40.253Z,15.73
2017-08-04T10:50:07.779Z,15.00
2017-08-04T10:52:35.292Z,19.80
2017-08-04T10:55:03.588Z,17.20
2017-08-04T10:57:31.419Z,18.10
2017-08-04T10:59:58.939Z,19.07
2017-08-04T11:02:26.460Z,20.57
2017-08-04T11:04:54.747Z,19.53
2017-08-04T11:07:22.255Z,15.53
2017-08-04T11:09:49.784Z,16.47
2017-08-04T11:12:17.287Z,18.13
2017-08-04T11:14:44.787Z,19.57
2017-08-04T11:17:12.298Z,18.53
2017-08-04T11:19:39.798Z,15.57
2017-08-04T11:22:07.623Z,17.07
2017-08-04T11:24:35.122Z,22.93
2017-08-04T11:27:02.638Z,13.20
2017-08-04T11:29:30.139Z,14.40
2017-08-04T11:31:57.655Z,15.40
2017-08-04T11:34:25.146Z,16.73
2017-08-04T11:36:53.422Z,17.77
2017-08-04T11:39:21.682Z,13.00
2017-08-04T11:41:49.960Z,13.67
2017-08-04T11:44:18.230Z,15.87
2017-08-04T11:46:46.533Z,14.67
2017-08-04T11:49:14.037Z,10.47
2017-08-04T11:51:41.550Z,14.10
2017-08-04T11:54:09.050Z,12.27
2017-08-04T11:56:36.567Z,13.27
2017-08-04T11:59:04.066Z,14.20
2017-08-04T12:01:31.579Z,10.97
2017-08-04T12:03:59.079Z,14.80
2017-08-04T12:06:26.598Z,13.57
2017-08-04T12:08:54.099Z,12.87
2017-08-04T12:11:21.619Z,12.57
2017-08-04T12:13:49.123Z,13.47
2017-08-04T12:16:16.623Z,14.37
2017-08-04T12:18:44.142Z,9.50
2017-08-04T12:21:11.634Z,9.43
2017-08-04T12:23:39.145Z,8.70
2017-08-04T12:26:06.647Z,13.90
2017-08-04T12:28:34.158Z,11.10
2017-08-04T12:31:01.664Z,20.40
2017-08-04T12:33:29.186Z,18.43
2017-08-04T12:35:56.687Z,16.53
2017-08-04T12:38:24.206Z,8.30
2017-08-04T12:40:51.707Z,12.03
2017-08-04T12:43:19.231Z,11.53
2017-08-04T12:45:46.727Z,8.77
2017-08-04T12:48:14.246Z,10.63
2017-08-04T12:50:41.746Z,11.73
2017-08-04T12:53:09.263Z,21.70
2017-08-04T12:55:36.779Z,9.80
2017-08-04T12:58:04.294Z,12.37
2017-08-04T13:00:32.562Z,12.77
2017-08-04T13:03:00.078Z,15.83
2017-08-04T13:05:27.589Z,13.87
2017-08-04T13:07:55.106Z,12.07
2017-08-04T13:10:22.612Z,15.23
2017-08-04T13:12:50.122Z,10.40
2017-08-04T13:15:17.635Z,9.97
2017-08-04T13:17:45.139Z,13.10
2017-08-04T13:20:12.658Z,10.77
2017-08-04T13:22:40.207Z,13.43
2017-08-04T13:25:08.490Z,11.73
2017-08-04T13:27:35.982Z,12.33
2017-08-04T13:30:03.509Z,14.20
2017-08-04T13:32:31.007Z,15.37
2017-08-04T13:34:58.566Z,11.23
2017-08-04T13:37:26.068Z,13.40
2017-08-04T13:39:54.331Z,8.13
2017-08-04T13:42:21.850Z,11.67
2017-08-04T13:44:49.351Z,11.63
2017-08-04T13:47:17.634Z,13.50
2017-08-04T13:49:45.131Z,12.90
2017-08-04T13:52:12.662Z,11.10
2017-08-04T13:54:40.159Z,15.97
2017-08-04T13:57:07.662Z,15.00
2017-08-04T13:59:35.176Z,12.47
2017-08-04T14:02:02.696Z,13.03
2017-08-04T14:04:30.219Z,9.67
2017-08-04T14:06:57.718Z,12.10
2017-08-04T14:09:25.275Z,20.23
2017-08-04T14:11:52.783Z,11.17
2017-08-04T14:14:21.046Z,9.60
2017-08-04T14:16:48.564Z,12.00
2017-08-04T14:19:16.838Z,9.53
2017-08-04T14:21:45.123Z,10.97
2017-08-04T14:24:12.635Z,11.07
2017-08-04T14:26:40.160Z,8.20
2017-08-04T14:29:07.661Z,14.70
2017-08-04T14:31:35.163Z,12.13
2017-08-04T14:34:02.687Z,8.43
2017-08-04T14:36:30.192Z,11.47
2017-08-04T14:38:57.707Z,13.47
2017-08-04T14:41:25.203Z,12.90
2017-08-04T14:43:52.726Z,17.73
2017-08-04T14:46:20.226Z,11.93
2017-08-04T14:48:47.735Z,12.57
2017-08-04T14:51:15.254Z,10.20
2017-08-04T14:53:42.754Z,8.93
2017-08-04T14:56:11.043Z,13.53
2017-08-04T14:58:39.311Z,11.67
2017-08-04T15:01:07.592Z,12.80
2017-08-04T15:03:35.851Z,9.77
2017-08-04T15:06:03.353Z,11.30
2017-08-04T15:08:30.874Z,18.27
2017-08-04T15:10:59.143Z,13.43
2017-08-04T15:13:26.654Z,11.63
2017-08-04T15:15:54.150Z,13.13
2017-08-04T15:18:21.734Z,13.03
2017-08-04T15:20:49.233Z,16.23
2017-08-04T15:23:16.735Z,17.23
2017-08-04T15:25:44.255Z,15.33
2017-08-04T15:28:11.759Z,14.50
2017-08-04T15:30:40.048Z,9.67
2017-08-04T15:33:08.308Z,11.63
2017-08-04T15:35:36.612Z,10.70
2017-08-04T15:38:04.106Z,12.73
2017-08-04T15:40:31.606Z,10.40
2017-08-04T15:42:59.886Z,14.03
2017-08-04T15:45:28.157Z,14.70
2017-08-04T15:47:56.439Z,14.57
2017-08-04T15:50:24.705Z,11.63
2017-08-04T15:52:52.219Z,11.13
2017-08-04T15:55:19.723Z,11.33
2017-08-04T15:57:47.232Z,12.70
2017-08-04T16:00:14.747Z,13.83
2017-08-04T16:02:42.252Z,13.63
2017-08-04T16:05:09.788Z,8.30
2017-08-04T16:07:37.290Z,13.33
2017-08-04T16:10:04.808Z,12.67
2017-08-04T16:12:32.311Z,13.57
2017-08-04T16:14:59.811Z,8.83
2017-08-04T16:17:27.328Z,9.40
2017-08-04T16:19:54.822Z,12.20
2017-08-04T16:22:22.343Z,13.43
2017-08-04T16:24:49.843Z,10.00
2017-08-04T16:27:17.360Z,9.60
2017-08-04T16:29:44.861Z,10.80
2017-08-04T16:32:12.355Z,9.87
2017-08-04T16:34:39.867Z,8.17
2017-08-04T16:37:08.126Z,7.07
2017-08-04T16:39:36.416Z,9.40
2017-08-04T16:42:04.687Z,6.77
2017-08-04T16:44:32.964Z,11.73
2017-08-04T16:47:01.232Z,11.37
2017-08-04T16:49:29.515Z,12.17
2017-08-04T16:51:57.798Z,10.27
2017-08-04T16:54:25.295Z,8.53
2017-08-04T16:56:52.805Z,13.73
2017-08-04T16:59:21.070Z,10.93
2017-08-04T17:01:48.587Z,14.40
2017-08-04T17:04:16.087Z,16.13
2017-08-04T17:06:43.618Z,8.77
2017-08-04T17:09:11.107Z,9.93
2017-08-04T17:11:39.375Z,8.00
2017-08-04T17:14:06.888Z,9.50
2017-08-04T17:16:34.387Z,11.33
2017-08-04T17:19:01.907Z,10.13
2017-08-04T17:21:29.403Z,8.63
2017-08-04T17:23:56.915Z,6.73
2017-08-04T17:26:24.416Z,9.80
2017-08-04T17:28:51.960Z,6.10
2017-08-04T17:31:19.463Z,14.77
2017-08-04T17:33:47.727Z,9.63
2017-08-04T17:36:15.239Z,11.83
2017-08-04T17:38:42.743Z,13.00
2017-08-04T17:41:10.255Z,11.50
2017-08-04T17:43:37.756Z,10.33
2017-08-04T17:46:05.272Z,10.37
2017-08-04T17:48:32.767Z,11.70
2017-08-04T17:51:00.263Z,9.87
2017-08-04T17:53:27.774Z,9.20
2017-08-04T17:55:55.271Z,18.93
2017-08-04T17:58:37.663Z,9.43
2017-08-04T18:01:05.926Z,12.00
2017-08-04T18:03:33.442Z,14.17
2017-08-04T18:06:00.942Z,10.30
2017-08-04T18:08:28.485Z,9.33
2017-08-04T18:10:55.985Z,12.50
2017-08-04T18:13:23.484Z,8.23
2017-08-04T18:15:51.045Z,14.57
2017-08-04T18:18:18.547Z,7.60
2017-08-04T18:20:46.897Z,10.47
2017-08-04T18:23:14.390Z,8.50
2017-08-04T18:25:42.686Z,10.50
2017-08-04T18:28:10.182Z,12.90
2017-08-04T18:30:37.682Z,11.00
2017-08-04T18:33:05.199Z,9.50
2017-08-04T18:35:32.711Z,8.07
2017-08-04T18:38:00.227Z,7.27
2017-08-04T18:40:27.722Z,9.70
2017-08-04T18:42:55.223Z,10.10
2017-08-04T18:45:22.740Z,8.80
2017-08-04T18:47:50.235Z,8.63
2017-08-04T18:50:17.747Z,8.03
2017-08-04T18:52:45.252Z,10.57
2017-08-04T18:55:12.809Z,10.30
2017-08-04T18:57:40.314Z,7.70
2017-08-04T19:00:08.583Z,7.80
2017-08-04T19:02:36.876Z,37.77
2017-08-04T19:05:04.433Z,12.87
2017-08-04T19:07:31.951Z,13.20
2017-08-04T19:09:59.455Z,14.37
2017-08-04T19:12:27.024Z,14.57
2017-08-04T19:14:54.540Z,17.50
2017-08-04T19:17:22.080Z,13.70
2017-08-04T19:19:49.587Z,7.63
2017-08-04T19:22:17.086Z,9.03
2017-08-04T19:24:44.664Z,9.67
2017-08-04T19:27:12.162Z,9.13
2017-08-04T19:29:39.680Z,6.70
2017-08-04T19:32:07.317Z,5.57
2017-08-04T19:34:34.814Z,5.80
2017-08-04T19:37:02.326Z,9.00
2017-08-04T19:39:29.826Z,7.93
2017-08-04T19:41:57.334Z,5.20
2017-08-04T19:44:24.839Z,11.50
2017-08-04T19:46:52.355Z,5.43
2017-08-04T19:49:19.851Z,7.40
2017-08-04T19:51:47.355Z,11.10
2017-08-04T19:54:14.874Z,6.87
2017-08-04T19:56:42.387Z,5.77
2017-08-04T19:59:09.903Z,8.63
2017-08-04T20:01:38.179Z,30.53
2017-08-04T20:04:05.691Z,7.10
2017-08-04T20:06:33.185Z,5.20
2017-08-04T20:09:00.682Z,8.30
2017-08-04T20:11:28.207Z,9.23
2017-08-04T20:13:55.703Z,6.47
2017-08-04T20:16:23.219Z,7.47
2017-08-04T20:18:50.757Z,8.57
2017-08-04T20:21:18.284Z,8.97
2017-08-04T20:23:45.784Z,8.13
2017-08-04T20:26:13.279Z,5.73
2017-08-04T20:28:40.790Z,5.07
2017-08-04T20:31:08.282Z,6.83
2017-08-04T20:33:36.564Z,6.20
2017-08-04T20:36:04.826Z,9.50
2017-08-04T20:38:32.342Z,7.50
2017-08-04T20:40:59.845Z,7.33
2017-08-04T20:43:27.343Z,4.50
2017-08-04T20:45:54.863Z,8.47
2017-08-04T20:48:22.360Z,4.43
2017-08-04T20:50:49.879Z,6.57
2017-08-04T20:53:17.387Z,4.00
2017-08-04T20:55:44.922Z,6.00
2017-08-04T20:58:12.418Z,6.60
2017-08-04T21:00:39.912Z,9.47
2017-08-04T21:03:07.423Z,6.23
2017-08-04T21:05:34.928Z,6.67
2017-08-04T21:08:02.450Z,5.47
2017-08-04T21:10:29.948Z,7.77
2017-08-04T21:12:58.212Z,5.00
2017-08-04T21:15:25.726Z,7.07
2017-08-04T21:17:53.227Z,6.30
2017-08-04T21:20:20.747Z,8.43
2017-08-04T21:22:48.248Z,5.43
2017-08-04T21:25:15.743Z,9.90
2017-08-04T21:27:43.264Z,6.83
2017-08-04T21:30:10.751Z,6.97
2017-08-04T21:32:38.271Z,4.40
2017-08-04T21:35:05.771Z,8.70
2017-08-04T21:37:33.277Z,8.47
2017-08-04T21:40:00.803Z,7.63
2017-08-04T21:42:28.298Z,6.27
2017-08-04T21:44:55.807Z,6.80
2017-08-04T21:47:23.311Z,3.60
2017-08-04T21:49:50.834Z,7.23
2017-08-04T21:52:18.326Z,4.50
2017-08-04T21:54:45.822Z,7.20
2017-08-04T21:57:13.335Z,4.73
2017-08-04T21:59:40.822Z,4.57
2017-08-04T22:02:08.341Z,5.80
2017-08-04T22:04:35.839Z,6.60
2017-08-04T22:07:04.139Z,5.60
2017-08-04T22:09:31.640Z,4.27
2017-08-04T22:11:59.139Z,6.10
2017-08-04T22:14:27.414Z,4.93
2017-08-04T22:16:55.674Z,7.37
2017-08-04T22:19:23.214Z,6.43
2017-08-04T22:21:50.717Z,5.30
2017-08-04T22:24:18.210Z,5.50
2017-08-04T22:26:45.719Z,6.43
2017-08-04T22:29:13.978Z,5.00
2017-08-04T22:31:41.512Z,2.90
2017-08-04T22:34:09.019Z,7.17
2017-08-04T22:36:37.287Z,6.53
2017-08-04T22:39:05.572Z,3.30
2017-08-04T22:41:33.084Z,7.50
2017-08-04T22:44:00.618Z,5.07
2017-08-04T22:46:28.114Z,3.60
2017-08-04T22:48:55.607Z,4.73
2017-08-04T22:51:23.123Z,8.90
2017-08-04T22:53:50.619Z,4.53
2017-08-04T22:56:18.154Z,5.27
2017-08-04T22:58:45.649Z,3.47
2017-08-04T23:01:13.159Z,6.30
2017-08-04T23:03:40.671Z,2.70
2017-08-04T23:06:08.170Z,4.30
2017-08-04T23:08:35.708Z,23.63
2017-08-04T23:11:03.204Z,4.00
2017-08-04T23:13:30.700Z,4.30
2017-08-04T23:15:58.213Z,4.83
2017-08-04T23:18:25.711Z,5.47
2017-08-04T23:20:53.223Z,4.20
2017-08-04T23:23:20.715Z,3.97
2017-08-04T23:25:49.000Z,13.30
2017-08-04T23:28:16.499Z,4.50
2017-08-04T23:30:43.995Z,5.07
2017-08-04T23:33:11.517Z,3.00
2017-08-04T23:35:39.022Z,3.07
2017-08-04T23:38:06.550Z,8.67
2017-08-04T23:40:34.048Z,5.00
2017-08-04T23:43:01.571Z,5.03
2017-08-04T23:45:29.066Z,11.53
2017-08-04T23:47:56.563Z,3.80
2017-08-04T23:50:24.075Z,3.97
2017-08-04T23:52:51.579Z,6.37
2017-08-04T23:55:19.090Z,4.80
2017-08-04T23:57:47.350Z,2.60
